createdAt,value
2023-04-25T00:00:17.878Z,100912.09
2023-04-25T00:02:45.073Z,100914.94
2023-04-25T00:05:12.462Z,100910.88
2023-04-25T00:07:40.044Z,100907.38
2023-04-25T00:10:08.328Z,100900.47
2023-04-25T00:12:35.327Z,100909.63
2023-04-25T00:15:02.744Z,100912.47
2023-04-25T00:17:30.583Z,100920.81
2023-04-25T00:19:59.175Z,100905.13
2023-04-25T00:22:26.215Z,100904.09
2023-04-25T00:24:54.383Z,100912.25
2023-04-25T00:27:21.389Z,100906.50
2023-04-25T00:29:48.370Z,100913.50
2023-04-25T00:32:15.479Z,100917.53
2023-04-25T00:34:42.436Z,100922.81
2023-04-25T00:37:09.486Z,100919.38
2023-04-25T00:39:36.537Z,100914.50
2023-04-25T00:42:07.104Z,100910.66
2023-04-25T00:44:36.677Z,100904.94
2023-04-25T00:47:04.618Z,100910.25
2023-04-25T00:49:31.832Z,100910.25
2023-04-25T00:51:58.883Z,100912.41
2023-04-25T00:54:26.388Z,100917.16
2023-04-25T00:56:53.872Z,100918.53
2023-04-25T00:59:21.688Z,100918.78
2023-04-25T01:01:48.787Z,100924.09
2023-04-25T01:04:16.074Z,100928.78
2023-04-25T01:06:43.330Z,100921.84
2023-04-25T01:09:10.721Z,100922.50
2023-04-25T01:11:37.697Z,100930.25
2023-04-25T01:14:04.790Z,100933.09
2023-04-25T01:16:32.478Z,100937.56
2023-04-25T01:19:00.590Z,100936.97
2023-04-25T01:21:29.138Z,100941.69
2023-04-25T01:23:56.142Z,100941.63
2023-04-25T01:26:24.221Z,100938.78
2023-04-25T01:28:51.887Z,100941.63
2023-04-25T01:31:20.678Z,100951.63
2023-04-25T01:33:49.741Z,100952.94
2023-04-25T01:36:17.028Z,100949.94
2023-04-25T01:38:45.052Z,100944.03
2023-04-25T01:41:12.345Z,100945.69
2023-04-25T01:43:39.451Z,100941.50
2023-04-25T01:46:06.415Z,100955.09
2023-04-25T01:48:33.620Z,100948.41
2023-04-25T01:51:00.621Z,100947.38
2023-04-25T01:53:27.881Z,100961.25
2023-04-25T01:55:54.936Z,100953.09
2023-04-25T01:58:21.978Z,100961.59
2023-04-25T02:00:48.877Z,100968.38
2023-04-25T02:03:16.107Z,100969.38
2023-04-25T02:05:43.156Z,100961.59
2023-04-25T02:08:10.660Z,100966.88
2023-04-25T02:10:38.101Z,100969.88
2023-04-25T02:13:06.249Z,100959.22
2023-04-25T02:15:33.485Z,100960.44
2023-04-25T02:18:01.304Z,100963.03
2023-04-25T02:20:31.017Z,100965.44
2023-04-25T02:22:57.996Z,100963.94
2023-04-25T02:25:25.364Z,100963.63
2023-04-25T02:27:52.557Z,100971.09
2023-04-25T02:30:19.609Z,100967.19
2023-04-25T02:32:46.941Z,100962.06
2023-04-25T02:35:13.932Z,100981.44
2023-04-25T02:37:41.524Z,100974.44
2023-04-25T02:40:09.516Z,100973.69
2023-04-25T02:42:37.108Z,100974.50
2023-04-25T02:45:04.782Z,100970.16
2023-04-25T02:47:32.295Z,100978.31
2023-04-25T02:49:59.508Z,100991.78
2023-04-25T02:52:26.555Z,100995.38
2023-04-25T02:54:53.463Z,100979.81
2023-04-25T02:57:20.409Z,100969.25
2023-04-25T02:59:47.468Z,100974.13
2023-04-25T03:02:14.519Z,100972.13
2023-04-25T03:04:41.598Z,100974.22
2023-04-25T03:07:08.997Z,100974.22
2023-04-25T03:09:36.129Z,100967.19
2023-04-25T03:12:03.128Z,100975.72
2023-04-25T03:14:30.178Z,100972.00
2023-04-25T03:16:57.139Z,100978.19
2023-04-25T03:19:24.296Z,100982.25
2023-04-25T03:21:51.328Z,100976.91
2023-04-25T03:24:18.352Z,100986.50
2023-04-25T03:26:46.408Z,100977.31
2023-04-25T03:29:13.391Z,100981.56
2023-04-25T03:31:40.420Z,100993.72
2023-04-25T03:34:07.361Z,100995.66
2023-04-25T03:36:34.353Z,101003.59
2023-04-25T03:39:01.404Z,100999.25
2023-04-25T03:41:28.836Z,100997.91
2023-04-25T03:43:56.081Z,101008.53
2023-04-25T03:46:23.066Z,101009.53
2023-04-25T03:48:50.077Z,101010.38
2023-04-25T03:51:17.123Z,101003.06
2023-04-25T03:53:44.046Z,100995.63
2023-04-25T03:56:11.053Z,101004.84
2023-04-25T03:58:38.026Z,101002.75
2023-04-25T04:01:08.522Z,101013.97
2023-04-25T04:03:37.322Z,101010.34
2023-04-25T04:06:08.783Z,101013.53
2023-04-25T04:08:35.883Z,101033.34
2023-04-25T04:11:02.812Z,101026.66
2023-04-25T04:13:30.863Z,101032.53
2023-04-25T04:15:58.605Z,101035.00
2023-04-25T04:18:25.751Z,101032.00
2023-04-25T04:20:52.873Z,101021.75
2023-04-25T04:23:21.618Z,101027.59
2023-04-25T04:25:48.962Z,101026.91
2023-04-25T04:28:17.099Z,101033.63
2023-04-25T04:30:48.069Z,101037.59
2023-04-25T04:33:19.948Z,101033.91
2023-04-25T04:35:47.959Z,101034.22
2023-04-25T04:38:16.575Z,101031.41
2023-04-25T04:40:44.163Z,101032.22
2023-04-25T04:43:11.335Z,101034.25
2023-04-25T04:45:41.395Z,101045.63
2023-04-25T04:48:08.488Z,101049.81
2023-04-25T04:50:36.651Z,101054.34
2023-04-25T04:53:05.330Z,101065.06
2023-04-25T04:55:32.299Z,101079.22
2023-04-25T04:57:59.296Z,101065.94
2023-04-25T05:00:28.541Z,101075.53
2023-04-25T05:02:59.785Z,101071.97
2023-04-25T05:05:26.958Z,101083.03
2023-04-25T05:07:53.880Z,101081.28
2023-04-25T05:10:21.452Z,101077.25
2023-04-25T05:12:48.481Z,101077.69
2023-04-25T05:15:15.587Z,101088.03
2023-04-25T05:17:42.618Z,101086.03
2023-04-25T05:20:10.584Z,101090.94
2023-04-25T05:22:37.697Z,101091.56
2023-04-25T05:25:05.680Z,101090.28
2023-04-25T05:27:32.580Z,101095.13
2023-04-25T05:29:59.498Z,101087.63
2023-04-25T05:32:26.800Z,101091.69
2023-04-25T05:34:54.186Z,101093.84
2023-04-25T05:37:21.369Z,101102.56
2023-04-25T05:39:48.797Z,101097.38
2023-04-25T05:42:15.833Z,101100.66
2023-04-25T05:44:42.767Z,101112.16
2023-04-25T05:47:09.775Z,101112.63
2023-04-25T05:49:36.725Z,101114.66
2023-04-25T05:52:04.064Z,101124.84
2023-04-25T05:54:31.072Z,101120.41
2023-04-25T05:56:58.744Z,101130.63
2023-04-25T05:59:26.263Z,101122.91
2023-04-25T06:01:53.268Z,101150.75
2023-04-25T06:04:20.689Z,101136.88
2023-04-25T06:06:47.933Z,101147.97
2023-04-25T06:09:14.881Z,101155.00
2023-04-25T06:11:41.959Z,101157.56
2023-04-25T06:14:08.969Z,101163.69
2023-04-25T06:16:36.036Z,101164.06
2023-04-25T06:19:03.025Z,101163.81
2023-04-25T06:21:30.031Z,101167.72
2023-04-25T06:23:56.926Z,101161.38
2023-04-25T06:26:23.885Z,101165.47
2023-04-25T06:28:50.835Z,101174.25
2023-04-25T06:31:17.794Z,101174.91
2023-04-25T06:33:44.791Z,101177.22
2023-04-25T06:36:11.771Z,101171.22
2023-04-25T06:38:38.766Z,101178.63
2023-04-25T06:41:05.987Z,101180.47
2023-04-25T06:43:34.495Z,101186.75
2023-04-25T06:46:01.829Z,101189.16
2023-04-25T06:48:29.093Z,101202.28
2023-04-25T06:50:56.108Z,101188.50
2023-04-25T06:53:23.160Z,101187.25
2023-04-25T06:55:50.070Z,101190.25
2023-04-25T06:58:17.044Z,101184.72
2023-04-25T07:00:44.066Z,101196.47
2023-04-25T07:03:11.187Z,101202.97
2023-04-25T07:05:38.418Z,101222.25
2023-04-25T07:08:05.979Z,101221.63
2023-04-25T07:10:32.913Z,101225.81
2023-04-25T07:12:59.844Z,101228.44
2023-04-25T07:15:26.849Z,101237.88
2023-04-25T07:17:53.900Z,101226.69
2023-04-25T07:20:21.050Z,101233.25
2023-04-25T07:22:48.110Z,101228.69
2023-04-25T07:25:15.374Z,101233.72
2023-04-25T07:27:42.403Z,101246.56
2023-04-25T07:30:10.213Z,101246.75
2023-04-25T07:32:37.314Z,101257.00
2023-04-25T07:35:04.770Z,101248.50
2023-04-25T07:37:31.777Z,101245.19
2023-04-25T07:39:58.704Z,101244.38
2023-04-25T07:42:25.798Z,101250.94
2023-04-25T07:44:52.944Z,101239.88
2023-04-25T07:47:22.859Z,101244.16
2023-04-25T07:49:49.938Z,101246.69
2023-04-25T07:52:16.923Z,101254.31
2023-04-25T07:54:43.855Z,101249.09
2023-04-25T07:57:10.881Z,101242.00
2023-04-25T07:59:37.885Z,101259.66
2023-04-25T08:02:04.875Z,101266.75
2023-04-25T08:04:32.042Z,101264.41
2023-04-25T08:06:59.096Z,101270.09
2023-04-25T08:09:26.096Z,101274.69
2023-04-25T08:11:53.126Z,101267.88
2023-04-25T08:14:20.255Z,101281.94
2023-04-25T08:16:47.267Z,101265.88
2023-04-25T08:19:14.269Z,101279.78
2023-04-25T08:21:41.314Z,101287.28
2023-04-25T08:24:08.363Z,101285.09
2023-04-25T08:26:35.553Z,101289.50
2023-04-25T08:29:02.474Z,101289.31
2023-04-25T08:31:29.554Z,101292.38
2023-04-25T08:33:56.643Z,101297.50
2023-04-25T08:36:37.775Z,101318.22
2023-04-25T08:39:06.852Z,101318.50
2023-04-25T08:41:45.789Z,101323.44
2023-04-25T08:44:12.930Z,101325.03
2023-04-25T08:46:43.522Z,101316.25
2023-04-25T08:49:10.623Z,101315.19
2023-04-25T08:51:46.354Z,101321.97
2023-04-25T08:54:34.592Z,101326.19
2023-04-25T08:57:05.281Z,101335.00
2023-04-25T08:59:33.961Z,101321.38
2023-04-25T09:02:02.184Z,101336.91
2023-04-25T09:04:32.171Z,101349.19
2023-04-25T09:06:59.859Z,101340.38
2023-04-25T09:09:26.960Z,101332.53
2023-04-25T09:11:59.066Z,101328.16
2023-04-25T09:14:27.101Z,101337.16
2023-04-25T09:16:57.132Z,101359.09
2023-04-25T09:19:39.626Z,101345.50
2023-04-25T09:22:11.199Z,101344.34
2023-04-25T09:24:44.809Z,101340.84
2023-04-25T09:27:18.987Z,101344.53
2023-04-25T09:29:49.445Z,101361.63
2023-04-25T09:32:27.456Z,101356.84
2023-04-25T09:34:57.100Z,101365.19
2023-04-25T09:37:29.640Z,101346.72
2023-04-25T09:40:08.241Z,101364.44
2023-04-25T09:42:36.408Z,101370.84
2023-04-25T09:45:04.969Z,101392.16
2023-04-25T09:47:33.075Z,101384.88
2023-04-25T09:50:00.202Z,101388.72
2023-04-25T09:52:27.241Z,101396.44
2023-04-25T09:54:54.309Z,101389.00
2023-04-25T09:57:24.571Z,101394.13
2023-04-25T09:59:54.660Z,101399.19
2023-04-25T10:02:28.272Z,101412.94
2023-04-25T10:04:57.094Z,101408.22
2023-04-25T10:07:28.202Z,101399.78
2023-04-25T10:10:06.977Z,101394.88
2023-04-25T10:12:35.219Z,101404.88
2023-04-25T10:15:04.265Z,101398.19
2023-04-25T10:17:32.714Z,101399.22
2023-04-25T10:20:04.105Z,101408.31
2023-04-25T10:22:37.031Z,101422.94
2023-04-25T10:25:05.426Z,101423.19
2023-04-25T10:27:33.104Z,101423.00
2023-04-25T10:30:07.275Z,101427.63
2023-04-25T10:32:34.891Z,101432.81
2023-04-25T10:35:20.459Z,101432.44
2023-04-25T10:38:13.610Z,101450.84
2023-04-25T10:40:40.891Z,101444.38
2023-04-25T10:43:32.768Z,101435.69
2023-04-25T10:46:04.079Z,101444.09
2023-04-25T10:48:32.260Z,101444.97
2023-04-25T10:51:34.562Z,101440.81
2023-04-25T10:54:09.751Z,101451.06
2023-04-25T10:56:45.349Z,101453.13
2023-04-25T10:59:18.155Z,101455.16
2023-04-25T11:01:58.003Z,101440.31
2023-04-25T11:04:30.804Z,101454.75
2023-04-25T11:07:08.060Z,101457.03
2023-04-25T11:09:37.608Z,101440.16
2023-04-25T11:12:05.994Z,101437.44
2023-04-25T11:14:33.014Z,101451.06
2023-04-25T11:17:01.971Z,101443.22
2023-04-25T11:19:30.747Z,101432.53
2023-04-25T11:22:02.585Z,101438.88
2023-04-25T11:24:35.561Z,101456.25
2023-04-25T11:27:04.728Z,101445.72
2023-04-25T11:29:33.727Z,101455.00
2023-04-25T11:32:02.263Z,101447.84
2023-04-25T11:34:34.109Z,101441.59
2023-04-25T11:37:03.109Z,101454.53
2023-04-25T11:39:32.020Z,101445.03
2023-04-25T11:41:59.839Z,101437.16
2023-04-25T11:44:27.796Z,101445.63
2023-04-25T11:46:54.704Z,101440.78
2023-04-25T11:49:23.068Z,101440.00
2023-04-25T11:51:50.553Z,101454.31
2023-04-25T11:54:17.986Z,101446.38
2023-04-25T11:56:47.747Z,101450.38
2023-04-25T11:59:15.142Z,101454.97
2023-04-25T12:01:49.732Z,101466.94
2023-04-25T12:04:18.887Z,101471.22
2023-04-25T12:06:54.196Z,101447.84
2023-04-25T12:09:29.612Z,101454.06
2023-04-25T12:11:59.407Z,101457.78
2023-04-25T12:14:29.880Z,101462.88
2023-04-25T12:17:00.603Z,101462.81
2023-04-25T12:19:34.219Z,101468.97
2023-04-25T12:22:03.850Z,101462.31
2023-04-25T12:24:34.472Z,101463.13
2023-04-25T12:27:07.005Z,101454.03
2023-04-25T12:29:48.586Z,101451.88
2023-04-25T12:32:17.684Z,101455.28
2023-04-25T12:34:44.784Z,101457.06
2023-04-25T12:37:12.446Z,101464.81
2023-04-25T12:39:39.407Z,101463.16
2023-04-25T12:42:09.648Z,101454.22
2023-04-25T12:44:37.369Z,101461.84
2023-04-25T12:47:04.820Z,101452.81
2023-04-25T12:49:31.983Z,101469.91
2023-04-25T12:51:59.423Z,101466.91
2023-04-25T12:54:26.966Z,101440.06
2023-04-25T12:56:54.071Z,101447.22
2023-04-25T12:59:22.248Z,101454.06
2023-04-25T13:01:49.370Z,101464.47
2023-04-25T13:04:17.214Z,101462.16
2023-04-25T13:06:44.594Z,101478.19
2023-04-25T13:09:13.464Z,101481.03
2023-04-25T13:11:41.904Z,101469.09
2023-04-25T13:14:08.916Z,101473.72
2023-04-25T13:16:36.109Z,101460.78
2023-04-25T13:19:03.108Z,101461.69
2023-04-25T13:21:35.278Z,101476.31
2023-04-25T13:24:02.177Z,101470.69
2023-04-25T13:26:29.139Z,101456.75
2023-04-25T13:28:56.092Z,101458.34
2023-04-25T13:31:23.093Z,101467.66
2023-04-25T13:33:50.233Z,101469.19
2023-04-25T13:36:17.400Z,101481.88
2023-04-25T13:38:45.971Z,101470.75
2023-04-25T13:41:18.633Z,101481.41
2023-04-25T13:43:48.432Z,101473.41
2023-04-25T13:46:35.279Z,101462.22
2023-04-25T13:49:12.421Z,101463.19
2023-04-25T13:51:41.344Z,101459.97
2023-04-25T13:54:08.614Z,101458.75
2023-04-25T13:56:35.746Z,101451.38
2023-04-25T13:59:02.707Z,101473.03
2023-04-25T14:01:32.058Z,101462.97
2023-04-25T14:03:59.208Z,101475.19
2023-04-25T14:06:26.323Z,101485.22
2023-04-25T14:08:53.365Z,101476.97
2023-04-25T14:11:20.332Z,101490.88
2023-04-25T14:13:48.651Z,101481.03
2023-04-25T14:16:17.150Z,101488.88
2023-04-25T14:18:44.209Z,101488.47
2023-04-25T14:21:11.771Z,101486.03
2023-04-25T14:23:38.725Z,101483.34
2023-04-25T14:26:06.312Z,101484.63
2023-04-25T14:28:33.364Z,101480.91
2023-04-25T14:31:01.353Z,101511.16
2023-04-25T14:33:28.351Z,101501.25
2023-04-25T14:35:55.600Z,101505.38
2023-04-25T14:38:24.312Z,101509.72
2023-04-25T14:40:51.950Z,101511.69
2023-04-25T14:43:18.945Z,101507.84
2023-04-25T14:45:46.400Z,101504.19
2023-04-25T14:48:13.649Z,101500.16
2023-04-25T14:50:40.941Z,101501.25
2023-04-25T14:53:07.941Z,101501.41
2023-04-25T14:55:34.885Z,101508.13
2023-04-25T14:58:02.108Z,101509.34
2023-04-25T15:00:29.227Z,101508.03
2023-04-25T15:02:57.205Z,101510.28
2023-04-25T15:05:24.459Z,101508.16
2023-04-25T15:07:51.600Z,101525.69
2023-04-25T15:10:19.735Z,101517.22
2023-04-25T15:12:48.000Z,101517.69
2023-04-25T15:15:22.786Z,101533.13
2023-04-25T15:17:56.529Z,101542.91
2023-04-25T15:20:26.039Z,101533.91
2023-04-25T15:22:53.076Z,101539.41
2023-04-25T15:25:20.080Z,101546.31
2023-04-25T15:27:49.371Z,101539.03
2023-04-25T15:30:18.210Z,101532.78
2023-04-25T15:32:46.938Z,101541.69
2023-04-25T15:35:15.869Z,101536.44
2023-04-25T15:37:42.865Z,101552.97
2023-04-25T15:40:13.479Z,101531.47
2023-04-25T15:42:48.190Z,101543.13
2023-04-25T15:45:17.879Z,101562.22
2023-04-25T15:47:45.603Z,101537.78
2023-04-25T15:50:14.925Z,101551.53
2023-04-25T15:52:42.134Z,101537.34
2023-04-25T15:55:10.263Z,101538.06
2023-04-25T15:57:37.912Z,101558.72
2023-04-25T16:00:13.392Z,101532.72
2023-04-25T16:02:42.601Z,101542.94
2023-04-25T16:05:11.488Z,101538.16
2023-04-25T16:07:40.930Z,101552.47
2023-04-25T16:10:09.475Z,101545.59
2023-04-25T16:12:37.536Z,101544.38
2023-04-25T16:15:05.209Z,101541.91
2023-04-25T16:17:33.367Z,101550.94
2023-04-25T16:20:01.998Z,101543.94
2023-04-25T16:22:29.040Z,101547.22
2023-04-25T16:24:55.960Z,101546.00
2023-04-25T16:27:22.965Z,101552.72
2023-04-25T16:29:51.387Z,101547.78
2023-04-25T16:32:18.429Z,101557.41
2023-04-25T16:34:45.707Z,101553.47
2023-04-25T16:37:12.731Z,101554.28
2023-04-25T16:39:39.658Z,101540.59
2023-04-25T16:42:06.877Z,101539.00
2023-04-25T16:44:33.892Z,101547.13
2023-04-25T16:47:00.910Z,101547.78
2023-04-25T16:49:28.334Z,101546.84
2023-04-25T16:51:55.315Z,101558.09
2023-04-25T16:54:22.215Z,101561.84
2023-04-25T16:56:49.133Z,101561.06
2023-04-25T16:59:16.069Z,101564.88
2023-04-25T17:01:43.053Z,101566.03
2023-04-25T17:04:10.081Z,101571.66
2023-04-25T17:06:37.458Z,101563.34
2023-04-25T17:09:05.770Z,101555.56
2023-04-25T17:11:32.677Z,101565.91
2023-04-25T17:13:59.635Z,101577.06
2023-04-25T17:16:36.510Z,101569.47
2023-04-25T17:19:05.901Z,101581.50
2023-04-25T17:21:33.059Z,101568.47
2023-04-25T17:24:00.400Z,101578.59
2023-04-25T17:26:27.592Z,101582.84
2023-04-25T17:28:54.993Z,101585.44
2023-04-25T17:31:23.876Z,101578.91
2023-04-25T17:33:51.082Z,101597.78
2023-04-25T17:36:18.842Z,101582.63
2023-04-25T17:38:45.884Z,101591.41
2023-04-25T17:41:14.929Z,101596.03
2023-04-25T17:43:42.012Z,101588.00
2023-04-25T17:46:09.049Z,101603.66
2023-04-25T17:48:36.038Z,101598.88
2023-04-25T17:51:03.023Z,101595.44
2023-04-25T17:53:30.010Z,101590.75
2023-04-25T17:55:56.964Z,101602.03
2023-04-25T17:58:24.088Z,101602.66
2023-04-25T18:00:51.529Z,101610.06
2023-04-25T18:03:18.654Z,101608.59
2023-04-25T18:05:45.743Z,101621.81
2023-04-25T18:08:13.729Z,101606.25
2023-04-25T18:10:41.213Z,101606.03
2023-04-25T18:13:09.188Z,101605.16
2023-04-25T18:15:36.919Z,101610.44
2023-04-25T18:18:11.483Z,101595.59
2023-04-25T18:20:38.463Z,101604.31
2023-04-25T18:23:05.578Z,101602.06
2023-04-25T18:25:32.520Z,101605.78
2023-04-25T18:28:00.129Z,101610.94
2023-04-25T18:30:27.101Z,101610.13
2023-04-25T18:32:55.165Z,101610.53
2023-04-25T18:35:22.665Z,101622.44
2023-04-25T18:37:49.758Z,101627.75
2023-04-25T18:40:16.806Z,101626.19
2023-04-25T18:42:43.987Z,101619.31
2023-04-25T18:45:11.919Z,101622.34
2023-04-25T18:47:38.947Z,101627.94
2023-04-25T18:50:08.287Z,101626.50
2023-04-25T18:52:35.325Z,101638.53
2023-04-25T18:55:02.248Z,101643.09
2023-04-25T18:57:29.207Z,101638.88
2023-04-25T18:59:56.198Z,101644.59
2023-04-25T19:02:23.349Z,101646.59
2023-04-25T19:04:50.566Z,101646.47
2023-04-25T19:07:18.011Z,101651.31
2023-04-25T19:09:45.003Z,101648.97
2023-04-25T19:12:12.108Z,101651.31
2023-04-25T19:14:39.042Z,101656.47
2023-04-25T19:17:06.180Z,101650.75
2023-04-25T19:19:33.216Z,101657.25
2023-04-25T19:22:00.768Z,101661.78
2023-04-25T19:24:28.059Z,101670.53
2023-04-25T19:26:55.209Z,101671.56
2023-04-25T19:29:22.193Z,101673.19
2023-04-25T19:31:49.203Z,101679.22
2023-04-25T19:34:16.473Z,101675.91
2023-04-25T19:36:44.191Z,101677.34
2023-04-25T19:39:11.263Z,101677.25
2023-04-25T19:41:39.314Z,101670.69
2023-04-25T19:44:08.952Z,101668.38
2023-04-25T19:46:37.353Z,101675.22
2023-04-25T19:49:08.694Z,101674.06
2023-04-25T19:51:36.983Z,101689.19
2023-04-25T19:54:04.353Z,101683.75
2023-04-25T19:56:31.383Z,101686.16
2023-04-25T19:58:58.640Z,101682.28
2023-04-25T20:01:26.242Z,101684.44
2023-04-25T20:03:53.700Z,101674.66
2023-04-25T20:06:20.951Z,101683.50
2023-04-25T20:08:48.093Z,101686.34
2023-04-25T20:11:15.704Z,101683.81
2023-04-25T20:13:42.744Z,101694.13
2023-04-25T20:16:12.547Z,101683.06
2023-04-25T20:18:40.139Z,101685.94
2023-04-25T20:21:08.518Z,101694.66
2023-04-25T20:23:36.337Z,101687.88
2023-04-25T20:26:04.841Z,101686.22
2023-04-25T20:28:35.537Z,101683.19
2023-04-25T20:31:02.477Z,101689.09
2023-04-25T20:33:29.515Z,101686.25
2023-04-25T20:35:56.584Z,101693.72
2023-04-25T20:38:23.497Z,101687.13
2023-04-25T20:40:51.117Z,101678.50
2023-04-25T20:43:18.095Z,101697.81
2023-04-25T20:45:45.025Z,101679.84
2023-04-25T20:48:11.985Z,101685.44
2023-04-25T20:50:38.959Z,101677.84
2023-04-25T20:53:05.895Z,101682.53
2023-04-25T20:55:32.862Z,101684.97
2023-04-25T20:58:00.116Z,101681.63
2023-04-25T21:00:29.054Z,101676.22
2023-04-25T21:02:57.679Z,101682.78
2023-04-25T21:05:24.971Z,101686.28
2023-04-25T21:07:55.047Z,101691.69
2023-04-25T21:10:22.057Z,101699.50
2023-04-25T21:12:51.838Z,101689.34
2023-04-25T21:15:22.465Z,101689.09
2023-04-25T21:17:51.259Z,101700.84
2023-04-25T21:20:21.381Z,101700.19
2023-04-25T21:22:53.434Z,101702.47
2023-04-25T21:25:29.116Z,101699.16
2023-04-25T21:27:59.520Z,101696.88
2023-04-25T21:30:27.359Z,101697.19
2023-04-25T21:32:56.984Z,101700.19
2023-04-25T21:35:28.747Z,101699.56
2023-04-25T21:37:56.078Z,101707.34
2023-04-25T21:40:23.110Z,101701.91
2023-04-25T21:42:53.664Z,101695.16
2023-04-25T21:45:23.667Z,101707.16
2023-04-25T21:47:51.047Z,101704.13
2023-04-25T21:50:19.478Z,101700.50
2023-04-25T21:52:48.144Z,101707.13
2023-04-25T21:55:16.561Z,101712.00
2023-04-25T21:57:43.816Z,101713.75
2023-04-25T22:00:21.060Z,101719.25
2023-04-25T22:02:57.839Z,101705.41
2023-04-25T22:05:27.006Z,101703.16
2023-04-25T22:07:59.010Z,101713.97
2023-04-25T22:10:25.964Z,101703.94
2023-04-25T22:12:54.170Z,101695.16
2023-04-25T22:15:24.425Z,101697.69
2023-04-25T22:17:52.339Z,101690.88
2023-04-25T22:20:24.120Z,101702.31
2023-04-25T22:22:51.080Z,101692.19
2023-04-25T22:25:19.504Z,101696.19
2023-04-25T22:27:49.513Z,101697.09
2023-04-25T22:30:16.911Z,101704.88
2023-04-25T22:32:44.178Z,101715.44
2023-04-25T22:35:14.705Z,101722.63
2023-04-25T22:37:42.241Z,101715.16
2023-04-25T22:40:10.478Z,101714.34
2023-04-25T22:42:42.696Z,101715.50
2023-04-25T22:45:11.005Z,101723.75
2023-04-25T22:47:39.725Z,101725.56
2023-04-25T22:50:14.800Z,101721.28
2023-04-25T22:52:42.705Z,101722.00
2023-04-25T22:55:10.787Z,101733.41
2023-04-25T22:57:38.839Z,101725.66
2023-04-25T23:00:20.096Z,101726.50
2023-04-25T23:02:49.930Z,101722.78
2023-04-25T23:05:17.396Z,101725.00
2023-04-25T23:07:45.092Z,101730.25
2023-04-25T23:10:17.547Z,101732.75
2023-04-25T23:12:44.621Z,101725.28
2023-04-25T23:15:15.264Z,101720.88
2023-04-25T23:17:42.479Z,101721.28
2023-04-25T23:20:11.162Z,101730.00
2023-04-25T23:22:42.230Z,101723.47
2023-04-25T23:25:09.942Z,101728.16
2023-04-25T23:27:37.383Z,101720.31
2023-04-25T23:30:11.425Z,101719.59
2023-04-25T23:32:42.178Z,101715.56
2023-04-25T23:35:12.937Z,101710.88
2023-04-25T23:37:40.528Z,101714.31
2023-04-25T23:40:20.351Z,101704.84
2023-04-25T23:42:47.590Z,101708.00
2023-04-25T23:45:20.204Z,101718.19
2023-04-25T23:47:47.260Z,101709.91
2023-04-25T23:50:41.088Z,101705.94
2023-04-25T23:53:17.542Z,101706.44
2023-04-25T23:55:59.715Z,101711.13
2023-04-25T23:58:41.577Z,101715.59
